Time;durP1;ratioP1;P1;durP2;ratioP2;P2;SDS_P1;SDS_P2;PMS_P1;PMS_P2;Temp;Humidity;BMP_temperature;BMP_pressure;BME280_temperature;BME280_humidity;BME280_pressure;Samples;Min_cycle;Max_cycle;Signal;HPM_P1;HPM_P2
2021/03/26 00:01:18;;;;;;;18.35;13.38;;;27.20;90.40;;;;;;5125022;28;20023;-49
2021/03/26 00:03:48;;;;;;;16.15;9.50;;;27.20;90.50;;;;;;5124488;28;20082;-51
2021/03/26 00:06:19;;;;;;;12.35;7.80;;;27.20;90.50;;;;;;5122037;28;20054;-56
2021/03/26 00:08:46;;;;;;;14.05;6.18;;;27.20;90.60;;;;;;5123090;28;20019;-46
2021/03/26 00:11:14;;;;;;;10.60;6.70;;;27.20;90.60;;;;;;5123188;28;20033;-49
2021/03/26 00:13:42;;;;;;;10.48;5.00;;;27.20;90.50;;;;;;5123060;28;20027;-50
2021/03/26 00:16:10;;;;;;;14.70;5.20;;;27.20;90.50;;;;;;5112435;28;20027;-46
2021/03/26 00:18:38;;;;;;;12.23;4.47;;;27.10;90.60;;;;;;5112726;28;20030;-47
2021/03/26 00:21:06;;;;;;;7.85;4.20;;;27.10;90.60;;;;;;5122507;28;20506;-54
2021/03/26 00:23:33;;;;;;;19.35;5.05;;;27.10;90.60;;;;;;5095312;28;20035;-50
2021/03/26 00:26:00;;;;;;;11.98;4.30;;;27.10;90.70;;;;;;5119056;28;20288;-47
2021/03/26 00:28:27;;;;;;;16.02;4.38;;;27.10;90.70;;;;;;5122964;28;20035;-49
2021/03/26 00:30:54;;;;;;;11.57;4.38;;;27.10;90.80;;;;;;5122850;28;20043;-46
2021/03/26 00:33:21;;;;;;;14.18;3.55;;;27.10;90.90;;;;;;5123019;28;20365;-44
2021/03/26 00:35:47;;;;;;;11.88;3.70;;;27.00;90.70;;;;;;5123839;28;20335;-45
2021/03/26 00:38:15;;;;;;;12.60;3.97;;;27.10;90.70;;;;;;5123663;28;20030;-42
2021/03/26 00:40:42;;;;;;;15.77;7.47;;;27.10;90.80;;;;;;5123767;28;20382;-46
2021/03/26 00:43:10;;;;;;;6.38;4.57;;;27.10;90.70;;;;;;5123991;28;20534;-46
2021/03/26 00:45:37;;;;;;;9.45;3.70;;;27.10;90.60;;;;;;5127831;28;20023;-49
2021/03/26 00:48:05;;;;;;;5.80;3.00;;;27.20;90.50;;;;;;5127663;28;20026;-45
2021/03/26 00:50:41;;;;;;;4.85;2.70;;;27.20;90.40;;;;;;5127528;28;20020;-45
2021/03/26 00:53:15;;;;;;;6.35;2.90;;;27.20;90.40;;;;;;5116402;28;20087;-44
2021/03/26 00:55:42;;;;;;;11.65;2.95;;;27.20;90.30;;;;;;5107183;28;20024;-50
2021/03/26 00:58:08;;;;;;;6.05;2.95;;;27.20;90.20;;;;;;5107661;28;20023;-46
2021/03/26 01:00:39;;;;;;;4.22;2.40;;;27.20;90.20;;;;;;5122448;28;20353;-44
2021/03/26 01:03:06;;;;;;;7.05;2.60;;;27.20;90.20;;;;;;5118166;28;20019;-46
2021/03/26 01:05:37;;;;;;;7.93;2.50;;;27.20;90.10;;;;;;5115760;28;20047;-46
2021/03/26 01:08:04;;;;;;;8.38;2.22;;;27.20;90.00;;;;;;5116761;28;20281;-43
2021/03/26 01:10:37;;;;;;;4.63;2.30;;;27.20;89.80;;;;;;5115486;28;20032;-47
2021/03/26 01:13:07;;;;;;;11.48;2.42;;;27.30;90.00;;;;;;5116245;28;20011;-47
2021/03/26 01:15:34;;;;;;;4.68;2.40;;;27.30;89.90;;;;;;5125648;28;20049;-42
2021/03/26 01:18:04;;;;;;;8.85;2.85;;;27.20;89.90;;;;;;5126731;28;20368;-47
2021/03/26 01:20:36;;;;;;;6.68;2.58;;;27.20;90.10;;;;;;5127608;28;20038;-50
2021/03/26 01:23:04;;;;;;;7.78;3.20;;;27.20;90.10;;;;;;5127097;28;20016;-47
2021/03/26 01:25:39;;;;;;;8.60;2.60;;;27.20;89.90;;;;;;5126742;28;20024;-45
2021/03/26 01:28:09;;;;;;;4.88;2.63;;;27.20;90.00;;;;;;5105428;28;20012;-54
2021/03/26 01:30:35;;;;;;;5.47;2.80;;;27.20;90.10;;;;;;5112154;28;20028;-51
2021/03/26 01:33:03;;;;;;;6.45;2.75;;;27.20;90.20;;;;;;5113541;28;20028;-46
2021/03/26 01:35:31;;;;;;;4.95;2.80;;;27.20;90.10;;;;;;5114458;28;20032;-48
2021/03/26 01:37:58;;;;;;;6.70;2.70;;;27.20;90.10;;;;;;5116395;28;20030;-44
2021/03/26 01:40:29;;;;;;;5.97;3.17;;;27.20;90.10;;;;;;5116598;28;20016;-48
2021/03/26 01:43:13;;;;;;;4.90;3.20;;;27.20;90.20;;;;;;5117709;28;20024;-44
2021/03/26 01:45:40;;;;;;;6.80;3.45;;;27.10;90.20;;;;;;5116752;28;20493;-52
2021/03/26 01:48:08;;;;;;;10.93;3.33;;;27.10;90.40;;;;;;5114528;28;20024;-44
2021/03/26 01:50:36;;;;;;;8.18;3.80;;;27.10;90.30;;;;;;5115584;28;20022;-48
2021/03/26 01:53:04;;;;;;;8.80;3.60;;;27.10;90.30;;;;;;5114590;28;20020;-43
2021/03/26 01:55:42;;;;;;;10.35;3.45;;;27.00;90.20;;;;;;5119425;28;20090;-42
2021/03/26 01:58:10;;;;;;;7.88;3.60;;;27.10;90.40;;;;;;5126704;28;20053;-51
2021/03/26 02:00:43;;;;;;;7.63;3.40;;;27.10;90.40;;;;;;5126674;28;20023;-48
2021/03/26 02:03:32;;;;;;;13.45;4.07;;;27.20;90.50;;;;;;5126754;28;20027;-44
2021/03/26 02:06:07;;;;;;;11.55;3.67;;;27.10;90.50;;;;;;5126712;28;20304;-46
2021/03/26 02:08:36;;;;;;;7.95;3.30;;;27.10;90.50;;;;;;5126779;28;20129;-52
2021/03/26 02:11:17;;;;;;;4.20;3.05;;;27.10;90.60;;;;;;5126993;28;20083;-53
2021/03/26 02:13:45;;;;;;;8.10;3.80;;;27.10;90.60;;;;;;5126410;28;20027;-52
2021/03/26 02:16:14;;;;;;;14.18;8.60;;;27.00;90.60;;;;;;5125903;28;20027;-49
2021/03/26 02:18:42;;;;;;;15.23;11.27;;;27.00;90.60;;;;;;5124860;28;20090;-46
2021/03/26 02:21:12;;;;;;;22.75;19.05;;;26.90;90.70;;;;;;5124517;28;20236;-53
2021/03/26 02:23:39;;;;;;;21.27;19.17;;;26.90;90.80;;;;;;5125129;28;20031;-48
2021/03/26 02:26:21;;;;;;;20.85;16.58;;;26.90;90.80;;;;;;5107814;28;20028;-51
2021/03/26 02:28:49;;;;;;;12.88;7.50;;;26.90;90.80;;;;;;5125639;28;20019;-47
2021/03/26 02:31:17;;;;;;;14.40;8.82;;;26.90;91.00;;;;;;5115354;28;20074;-48
2021/03/26 02:33:45;;;;;;;13.23;5.60;;;26.90;91.00;;;;;;5123166;28;20023;-49
2021/03/26 02:36:20;;;;;;;10.27;5.47;;;26.80;90.80;;;;;;5124787;28;20036;-49
2021/03/26 02:39:29;;;;;;;10.75;6.15;;;26.80;90.90;;;;;;5124820;28;20024;-50
2021/03/26 02:42:00;;;;;;;9.68;4.60;;;26.80;90.80;;;;;;5123448;28;20031;-49
2021/03/26 02:44:50;;;;;;;9.35;5.13;;;26.80;90.90;;;;;;5124346;28;20357;-47
2021/03/26 02:47:30;;;;;;;6.57;4.18;;;26.80;90.80;;;;;;5124229;28;20364;-48
2021/03/26 02:50:07;;;;;;;12.90;3.95;;;26.80;90.80;;;;;;5124262;28;20019;-54
2021/03/26 02:53:07;;;;;;;9.50;2.90;;;26.80;90.60;;;;;;5124159;28;20022;-49
2021/03/26 02:55:43;;;;;;;9.73;3.08;;;26.80;90.90;;;;;;5115647;28;20094;-50
2021/03/26 02:58:31;;;;;;;4.15;2.65;;;26.80;90.70;;;;;;5118321;28;20362;-49
2021/03/26 03:01:11;;;;;;;9.50;3.00;;;26.80;90.60;;;;;;5125765;28;20058;-53
2021/03/26 03:03:40;;;;;;;5.15;2.58;;;26.80;90.60;;;;;;5125692;28;20027;-47
2021/03/26 03:06:19;;;;;;;5.82;2.70;;;26.80;90.40;;;;;;5125430;28;20087;-52
2021/03/26 03:08:48;;;;;;;8.63;2.58;;;26.80;90.30;;;;;;5125424;28;20023;-53
2021/03/26 03:11:38;;;;;;;5.88;2.45;;;26.80;90.20;;;;;;5126024;28;20099;-51
2021/03/26 03:14:32;;;;;;;8.98;2.90;;;26.80;90.10;;;;;;5125293;28;20026;-51
2021/03/26 03:17:18;;;;;;;12.50;2.67;;;26.80;90.10;;;;;;5125212;28;20042;-45
2021/03/26 03:19:56;;;;;;;8.63;3.30;;;26.80;90.00;;;;;;5124872;28;20055;-50
2021/03/26 03:22:41;;;;;;;10.35;2.75;;;26.70;89.60;;;;;;5125171;28;20044;-45
2021/03/26 03:25:17;;;;;;;9.00;2.30;;;26.70;89.80;;;;;;5125088;28;20023;-48
2021/03/26 03:28:11;;;;;;;9.35;2.42;;;26.70;89.60;;;;;;5114066;28;20082;-47
2021/03/26 03:31:06;;;;;;;9.80;2.75;;;26.70;89.40;;;;;;5113260;28;20016;-48
2021/03/26 03:33:51;;;;;;;9.55;2.75;;;26.80;89.30;;;;;;5103729;28;20031;-47
2021/03/26 03:36:22;;;;;;;9.40;3.15;;;26.70;89.60;;;;;;5104952;28;20028;-52
2021/03/26 03:39:07;;;;;;;11.93;3.33;;;26.80;89.40;;;;;;5103210;28;20027;-43
2021/03/26 03:42:12;;;;;;;8.00;2.50;;;26.80;89.20;;;;;;5105246;28;20031;-44
2021/03/26 03:44:47;;;;;;;11.18;2.90;;;26.80;89.20;;;;;;5073939;28;20031;-45
2021/03/26 03:47:36;;;;;;;8.45;2.20;;;26.80;89.30;;;;;;5104607;28;20024;-48
2021/03/26 03:50:16;;;;;;;11.27;2.53;;;26.80;89.30;;;;;;5104717;28;20373;-44
2021/03/26 03:53:22;;;;;;;10.20;2.90;;;26.80;89.50;;;;;;5104729;28;20331;-45
2021/03/26 03:56:02;;;;;;;6.97;2.85;;;26.80;90.00;;;;;;5093202;28;20140;-51
2021/03/26 03:58:44;;;;;;;8.00;2.80;;;26.70;90.20;;;;;;5104557;28;20101;-46
2021/03/26 04:01:47;;;;;;;8.27;2.20;;;26.80;90.20;;;;;;5105063;28;20031;-44
2021/03/26 04:04:26;;;;;;;10.20;2.30;;;26.70;90.30;;;;;;5104455;28;20031;-47
2021/03/26 04:06:59;;;;;;;8.75;2.28;;;26.70;90.40;;;;;;5104518;28;20061;-44
2021/03/26 04:09:34;;;;;;;9.07;2.30;;;26.70;90.50;;;;;;5104246;28;20016;-48
2021/03/26 04:12:09;;;;;;;12.50;3.08;;;26.70;90.50;;;;;;5104459;28;20020;-44
2021/03/26 04:14:47;;;;;;;8.15;2.42;;;26.70;90.60;;;;;;5104442;28;20023;-48
2021/03/26 04:17:47;;;;;;;8.43;2.53;;;26.70;90.60;;;;;;5103712;28;20024;-51
2021/03/26 04:20:47;;;;;;;5.60;2.05;;;26.70;90.70;;;;;;5100684;28;20031;-51
2021/03/26 04:23:30;;;;;;;13.15;2.38;;;26.70;90.80;;;;;;5067820;28;20048;-49
2021/03/26 04:26:09;;;;;;;8.35;2.30;;;26.70;90.70;;;;;;5104685;28;20024;-52
2021/03/26 04:28:42;;;;;;;10.57;2.38;;;26.70;90.80;;;;;;5104324;28;20196;-48
2021/03/26 04:31:22;;;;;;;7.05;2.30;;;26.70;90.90;;;;;;5104277;28;20020;-52
2021/03/26 04:33:51;;;;;;;16.48;2.60;;;26.60;90.90;;;;;;5086918;28;20020;-52
2021/03/26 04:36:25;;;;;;;12.98;2.53;;;26.60;90.90;;;;;;5104825;28;20311;-49
2021/03/26 04:39:00;;;;;;;11.30;2.72;;;26.60;90.90;;;;;;5104001;28;20058;-54
2021/03/26 04:41:38;;;;;;;8.90;2.30;;;26.60;90.90;;;;;;5087198;28;20024;-51
2021/03/26 04:44:24;;;;;;;6.53;2.65;;;26.60;91.00;;;;;;5103973;28;20031;-52
2021/03/26 04:47:09;;;;;;;8.40;2.10;;;26.60;90.90;;;;;;5104162;28;20035;-45
2021/03/26 04:49:42;;;;;;;5.32;2.33;;;26.60;90.90;;;;;;5104135;28;20023;-49
2021/03/26 04:52:29;;;;;;;9.65;2.72;;;26.60;90.80;;;;;;5104146;28;20275;-53
2021/03/26 04:55:12;;;;;;;14.50;3.13;;;26.60;90.80;;;;;;5104170;28;20036;-48
2021/03/26 04:58:00;;;;;;;15.38;2.47;;;26.60;90.80;;;;;;5103878;28;20347;-46
2021/03/26 05:00:29;;;;;;;7.93;2.22;;;26.60;90.80;;;;;;5104239;28;20031;-48
2021/03/26 05:03:06;;;;;;;11.30;2.42;;;26.60;90.80;;;;;;5103895;28;20300;-48
2021/03/26 05:05:39;;;;;;;9.88;2.13;;;26.60;90.70;;;;;;5104182;28;20020;-47
2021/03/26 05:08:07;;;;;;;6.55;2.38;;;26.60;90.60;;;;;;5103981;28;20051;-54
2021/03/26 05:10:37;;;;;;;9.50;2.25;;;26.60;90.50;;;;;;5104230;28;20024;-51
2021/03/26 05:13:11;;;;;;;5.95;2.05;;;26.50;90.40;;;;;;5103997;28;20269;-51
2021/03/26 05:15:47;;;;;;;10.15;2.25;;;26.60;90.50;;;;;;5103761;28;20046;-45
2021/03/26 05:18:25;;;;;;;11.48;2.58;;;26.60;90.60;;;;;;5103973;28;20050;-46
2021/03/26 05:21:04;;;;;;;8.45;2.33;;;26.60;90.50;;;;;;5103785;28;20028;-45
2021/03/26 05:23:46;;;;;;;6.03;1.98;;;26.50;90.60;;;;;;5103759;28;20336;-45
2021/03/26 05:26:13;;;;;;;7.80;2.38;;;26.50;90.60;;;;;;5104139;28;20028;-47
2021/03/26 05:28:44;;;;;;;7.85;2.25;;;26.50;90.80;;;;;;5104144;28;20302;-50
2021/03/26 05:31:48;;;;;;;6.88;1.95;;;26.50;90.80;;;;;;5107159;28;20023;-46
2021/03/26 05:34:49;;;;;;;9.90;2.42;;;26.50;90.70;;;;;;5107827;28;20087;-47
2021/03/26 05:37:18;;;;;;;10.23;2.42;;;26.50;90.60;;;;;;5107031;28;20040;-51
2021/03/26 05:39:48;;;;;;;7.80;1.98;;;26.50;90.70;;;;;;5107321;28;20099;-48
2021/03/26 05:42:39;;;;;;;6.22;1.90;;;26.50;90.60;;;;;;5107414;28;20015;-46
2021/03/26 05:45:15;;;;;;;12.07;2.10;;;26.50;90.60;;;;;;5107445;28;20028;-43
2021/03/26 05:47:59;;;;;;;7.28;2.20;;;26.50;90.60;;;;;;5107425;28;20020;-55
2021/03/26 05:51:02;;;;;;;9.02;2.35;;;26.50;90.60;;;;;;5107265;28;20032;-50
2021/03/26 05:53:33;;;;;;;10.18;2.40;;;26.50;90.70;;;;;;5065051;28;20024;-47
2021/03/26 05:56:25;;;;;;;9.57;2.40;;;26.40;90.70;;;;;;5107520;28;20027;-47
2021/03/26 05:59:04;;;;;;;9.70;2.13;;;26.40;90.60;;;;;;5075924;28;20251;-45
2021/03/26 06:01:46;;;;;;;13.10;2.40;;;26.40;90.70;;;;;;5107481;28;20251;-47
2021/03/26 06:04:33;;;;;;;;;;;26.40;90.70;;;;;;5107319;28;20146;-45
2021/03/26 06:07:09;;;;;;;10.38;2.83;;;26.40;90.80;;;;;;5107051;28;19977;-46
2021/03/26 06:09:58;;;;;;;8.25;2.08;;;26.40;90.90;;;;;;5107044;28;20012;-49
2021/03/26 06:12:31;;;;;;;7.47;2.00;;;26.40;91.10;;;;;;5106752;28;20016;-45
2021/03/26 06:15:27;;;;;;;11.68;2.67;;;26.40;91.00;;;;;;5106850;28;20035;-46
2021/03/26 06:18:01;;;;;;;12.00;2.40;;;26.40;91.10;;;;;;5106739;28;20030;-45
2021/03/26 06:20:43;;;;;;;12.88;2.45;;;26.40;91.20;;;;;;5122704;28;20024;-45
2021/03/26 06:23:42;;;;;;;8.40;2.78;;;26.30;91.10;;;;;;5106632;28;20040;-46
2021/03/26 06:26:08;;;;;;;6.55;2.20;;;26.30;91.30;;;;;;5106825;28;20272;-52
2021/03/26 06:29:07;;;;;;;11.77;2.50;;;26.30;91.30;;;;;;5106641;28;20016;-45
2021/03/26 06:32:07;;;;;;;7.95;2.17;;;26.20;91.30;;;;;;5106888;28;20031;-48
2021/03/26 06:34:52;;;;;;;11.30;2.80;;;26.20;91.40;;;;;;5106276;28;20024;-53
2021/03/26 06:37:51;;;;;;;15.77;2.30;;;26.20;91.50;;;;;;5106393;28;20208;-52
2021/03/26 06:40:47;;;;;;;7.20;2.40;;;26.20;91.50;;;;;;5106101;28;20032;-45
2021/03/26 06:43:23;;;;;;;11.80;3.00;;;26.10;91.60;;;;;;5103318;28;20296;-50
2021/03/26 06:46:07;;;;;;;8.40;2.63;;;26.10;91.60;;;;;;5106611;28;20082;-47
2021/03/26 06:48:41;;;;;;;11.57;3.05;;;26.10;91.80;;;;;;5106095;28;20016;-50
2021/03/26 06:51:26;;;;;;;11.88;2.55;;;26.10;91.90;;;;;;5106526;28;20296;-45
2021/03/26 06:53:59;;;;;;;4.72;2.85;;;26.10;92.10;;;;;;5106146;28;20066;-51
2021/03/26 06:56:37;;;;;;;8.18;2.50;;;26.10;92.20;;;;;;5106543;28;20032;-45
2021/03/26 06:59:19;;;;;;;9.38;2.40;;;26.10;92.10;;;;;;5105979;28;20296;-52
2021/03/26 07:01:54;;;;;;;8.93;2.78;;;26.00;92.10;;;;;;5106029;28;20036;-46
2021/03/26 07:04:39;;;;;;;5.32;2.15;;;26.00;92.30;;;;;;5105759;28;20046;-50
2021/03/26 07:07:50;;;;;;;8.10;2.35;;;26.00;92.00;;;;;;5105782;28;20012;-49
2021/03/26 07:10:41;;;;;;;7.93;2.22;;;26.00;92.00;;;;;;5090189;28;20038;-54
2021/03/26 07:13:22;;;;;;;10.00;2.50;;;26.00;92.00;;;;;;5105701;28;20020;-48
2021/03/26 07:16:25;;;;;;;16.65;3.05;;;26.00;91.90;;;;;;5106056;28;20221;-51
2021/03/26 07:19:20;;;;;;;19.35;3.65;;;26.00;92.10;;;;;;5105486;28;20061;-46
2021/03/26 07:21:55;;;;;;;20.42;5.55;;;26.00;92.10;;;;;;5105514;28;20056;-46
2021/03/26 07:24:36;;;;;;;21.08;5.70;;;26.00;92.40;;;;;;5105399;28;20300;-44
2021/03/26 07:27:24;;;;;;;19.07;5.57;;;26.00;92.50;;;;;;5105329;28;20019;-48
2021/03/26 07:29:59;;;;;;;32.00;6.80;;;25.90;92.70;;;;;;5105447;28;20057;-45
2021/03/26 07:32:45;;;;;;;20.83;4.93;;;25.90;92.80;;;;;;5105278;28;20016;-46
2021/03/26 07:35:39;;;;;;;16.83;4.05;;;25.80;92.70;;;;;;5105428;28;20038;-45
2021/03/26 07:38:36;;;;;;;15.27;3.90;;;25.80;92.50;;;;;;5105533;28;20019;-48
2021/03/26 07:41:30;;;;;;;11.10;3.55;;;25.80;92.60;;;;;;5105594;28;20056;-46
2021/03/26 07:44:33;;;;;;;10.57;2.90;;;25.80;92.40;;;;;;5104989;28;20020;-46
2021/03/26 07:47:12;;;;;;;14.70;3.28;;;25.80;92.40;;;;;;5105094;28;20046;-43
2021/03/26 07:50:00;;;;;;;8.80;3.00;;;25.80;92.40;;;;;;5105201;28;20058;-48
2021/03/26 07:53:18;;;;;;;9.07;3.30;;;25.80;92.60;;;;;;5104164;28;20048;-46
2021/03/26 07:56:02;;;;;;;7.32;2.80;;;25.80;92.50;;;;;;5079468;28;20250;-48
2021/03/26 07:59:05;;;;;;;9.38;3.13;;;25.80;92.80;;;;;;5105009;28;20023;-45
2021/03/26 08:01:53;;;;;;;13.50;3.13;;;25.80;93.10;;;;;;5105360;28;20126;-45
2021/03/26 08:04:35;;;;;;;9.32;2.97;;;25.80;92.90;;;;;;5104606;28;20331;-43
2021/03/26 08:07:29;;;;;;;7.22;2.80;;;25.80;92.90;;;;;;5098639;28;20024;-44
2021/03/26 08:10:26;;;;;;;5.28;2.42;;;25.90;92.70;;;;;;5104926;28;20031;-45
2021/03/26 08:13:09;;;;;;;9.75;2.28;;;25.90;92.60;;;;;;5104664;28;20191;-53
2021/03/26 08:15:50;;;;;;;;;;;25.80;92.40;;;;;;5105188;28;20046;-46
2021/03/26 08:18:47;;;;;;;3.53;2.47;;;25.80;92.80;;;;;;5104873;28;20242;-50
2021/03/26 08:21:19;;;;;;;9.27;2.65;;;25.80;92.60;;;;;;5104727;28;20038;-45
2021/03/26 08:24:01;;;;;;;;;;;25.80;92.60;;;;;;5104884;28;20020;-46
2021/03/26 08:26:36;;;;;;;7.30;2.22;;;25.80;92.70;;;;;;5105078;28;19914;-45
2021/03/26 08:29:25;;;;;;;7.40;2.90;;;25.80;92.70;;;;;;5104803;28;20264;-52
2021/03/26 08:32:19;;;;;;;7.78;2.55;;;25.70;92.80;;;;;;5104433;28;20027;-45
2021/03/26 08:35:12;;;;;;;10.15;2.53;;;25.70;92.90;;;;;;5104489;28;20099;-45
2021/03/26 08:38:16;;;;;;;8.02;2.70;;;25.70;93.10;;;;;;5104298;28;20028;-45
2021/03/26 08:41:03;;;;;;;8.93;2.65;;;25.70;92.90;;;;;;5104614;28;20189;-47
2021/03/26 08:43:33;;;;;;;6.97;2.30;;;25.70;92.80;;;;;;5104232;28;20090;-45
2021/03/26 08:46:26;;;;;;;7.97;2.60;;;25.70;92.70;;;;;;5104432;28;20024;-47
2021/03/26 08:49:20;;;;;;;9.70;3.20;;;25.60;92.70;;;;;;5104189;28;20213;-46
2021/03/26 08:52:19;;;;;;;5.20;2.40;;;25.70;92.70;;;;;;5104348;28;20043;-52
2021/03/26 08:55:07;;;;;;;6.78;2.10;;;25.70;92.50;;;;;;5096164;28;20032;-53
2021/03/26 08:57:54;;;;;;;5.50;2.03;;;25.70;92.50;;;;;;5104062;28;20012;-43
2021/03/26 09:00:57;;;;;;;7.78;2.55;;;25.70;92.40;;;;;;5104329;28;20042;-53
2021/03/26 09:03:46;;;;;;;9.18;2.65;;;25.70;92.30;;;;;;5104205;28;20325;-48
2021/03/26 09:06:49;;;;;;;5.95;2.20;;;25.70;92.20;;;;;;5108386;28;20035;-45
2021/03/26 09:10:27;;;;;;;6.40;1.92;;;25.70;92.20;;;;;;5107968;28;20012;-45
2021/03/26 09:13:23;;;;;;;7.95;2.47;;;25.70;92.10;;;;;;5012629;28;20022;-45
2021/03/26 09:16:10;;;;;;;11.07;2.33;;;25.70;92.10;;;;;;5128785;28;20043;-48
2021/03/26 09:18:39;;;;;;;8.70;2.40;;;25.70;92.10;;;;;;5128071;28;20027;-45
2021/03/26 09:21:33;;;;;;;5.07;2.00;;;25.70;92.10;;;;;;5128249;28;20300;-47
2021/03/26 09:24:02;;;;;;;12.18;2.40;;;25.70;92.00;;;;;;5127763;28;20030;-51
2021/03/26 09:27:09;;;;;;;9.48;2.30;;;25.70;92.10;;;;;;5128418;28;20030;-50
2021/03/26 09:30:02;;;;;;;5.50;1.95;;;25.60;92.10;;;;;;5127725;28;20016;-53
2021/03/26 09:32:38;;;;;;;9.55;2.00;;;25.70;92.00;;;;;;5127683;28;20315;-48
2021/03/26 09:35:22;;;;;;;4.15;1.90;;;25.70;92.00;;;;;;5127778;27;20057;-52
2021/03/26 09:38:07;;;;;;;9.18;1.98;;;25.70;91.90;;;;;;5127433;28;20042;-48
2021/03/26 09:41:02;;;;;;;5.50;2.50;;;25.70;91.90;;;;;;5127731;27;20095;-48
2021/03/26 09:43:31;;;;;;;5.88;2.63;;;25.70;91.90;;;;;;5127391;28;20022;-47
2021/03/26 09:46:02;;;;;;;10.70;2.83;;;25.70;91.90;;;;;;5127813;28;20173;-53
2021/03/26 09:49:06;;;;;;;8.55;2.20;;;25.70;92.00;;;;;;5127330;28;20020;-57
2021/03/26 09:51:44;;;;;;;8.18;2.25;;;25.70;92.10;;;;;;5127674;28;20032;-54
2021/03/26 09:54:38;;;;;;;13.85;2.65;;;25.70;92.10;;;;;;5127563;28;20043;-55
2021/03/26 09:57:45;;;;;;;5.72;2.33;;;25.70;92.10;;;;;;5127179;28;20034;-55
2021/03/26 10:00:33;;;;;;;4.70;2.60;;;25.70;92.30;;;;;;5127307;28;20023;-51
2021/03/26 10:03:34;;;;;;;5.22;2.10;;;25.70;92.20;;;;;;5126838;28;20019;-54
2021/03/26 10:06:39;;;;;;;4.80;2.30;;;25.70;92.20;;;;;;5125334;28;20034;-54
2021/03/26 10:11:58;;;;;;;8.27;2.35;;;25.60;92.10;;;;;;5127028;28;20065;-55
2021/03/26 10:14:35;;;;;;;7.07;2.25;;;25.60;92.10;;;;;;5126788;28;20019;-51
2021/03/26 10:17:11;;;;;;;10.70;3.05;;;25.60;92.10;;;;;;5126044;28;20087;-48
2021/03/26 10:20:03;;;;;;;4.95;2.50;;;25.60;92.00;;;;;;5126922;28;20018;-48
2021/03/26 10:22:48;;;;;;;7.20;2.60;;;25.60;91.90;;;;;;5126629;28;20103;-51
2021/03/26 10:25:21;;;;;;;5.50;2.53;;;25.60;91.90;;;;;;5126852;28;20258;-53
2021/03/26 10:28:22;;;;;;;5.32;2.35;;;25.60;91.90;;;;;;5126869;28;20057;-48
2021/03/26 10:31:01;;;;;;;9.38;2.67;;;25.60;91.90;;;;;;5111098;28;20095;-49
2021/03/26 10:33:31;;;;;;;4.97;2.28;;;25.60;91.90;;;;;;5126372;28;20076;-50
2021/03/26 10:36:02;;;;;;;6.05;2.38;;;25.60;91.70;;;;;;5126757;28;20028;-47
2021/03/26 10:38:56;;;;;;;4.80;2.40;;;25.60;91.70;;;;;;5126510;28;20011;-47
2021/03/26 10:41:29;;;;;;;6.22;2.47;;;25.60;91.60;;;;;;5122763;28;20094;-53
2021/03/26 10:44:09;;;;;;;8.52;2.63;;;25.60;91.60;;;;;;5126284;28;20078;-45
2021/03/26 10:46:41;;;;;;;10.98;2.85;;;25.60;91.60;;;;;;5126791;28;20129;-52
2021/03/26 10:49:13;;;;;;;7.10;3.22;;;25.70;91.60;;;;;;5125965;27;20020;-47
2021/03/26 10:51:43;;;;;;;;;;;25.60;91.60;;;;;;5126708;28;20270;-48
2021/03/26 10:54:41;;;;;;;5.90;2.65;;;25.60;91.50;;;;;;5126078;28;19900;-47
2021/03/26 10:57:29;;;;;;;7.95;2.72;;;25.60;91.60;;;;;;5126020;28;20046;-50
2021/03/26 10:59:55;;;;;;;8.07;3.47;;;25.60;91.50;;;;;;5125882;28;20215;-57
2021/03/26 11:02:41;;;;;;;8.43;3.97;;;25.70;91.50;;;;;;5125998;28;20011;-46
2021/03/26 11:05:32;;;;;;;8.18;3.65;;;25.70;91.50;;;;;;5125899;28;20046;-45
2021/03/26 11:08:02;;;;;;;5.88;3.35;;;25.70;91.40;;;;;;5125838;28;20339;-47
2021/03/26 11:10:35;;;;;;;7.07;3.63;;;25.70;91.50;;;;;;5126138;28;20350;-49
2021/03/26 11:13:23;;;;;;;9.30;3.40;;;25.70;91.40;;;;;;5125831;28;20048;-45
2021/03/26 11:16:01;;;;;;;8.38;3.50;;;25.70;91.50;;;;;;5126326;28;20197;-52
2021/03/26 11:18:37;;;;;;;6.90;3.55;;;25.70;91.40;;;;;;5126448;28;20019;-51
2021/03/26 11:21:15;;;;;;;9.13;3.30;;;25.70;91.40;;;;;;5125978;28;20211;-47
2021/03/26 11:23:52;;;;;;;6.85;3.10;;;25.70;91.60;;;;;;5125443;28;20035;-53
2021/03/26 11:26:39;;;;;;;5.95;3.28;;;25.70;91.20;;;;;;5125931;28;20015;-52
2021/03/26 11:29:17;;;;;;;6.72;3.08;;;25.70;91.30;;;;;;5124633;28;20042;-51
2021/03/26 11:32:17;;;;;;;10.15;3.13;;;25.80;91.30;;;;;;5125914;28;20057;-49
2021/03/26 11:35:09;;;;;;;5.22;2.85;;;25.80;91.20;;;;;;5121941;28;20024;-47
2021/03/26 11:37:57;;;;;;;6.85;2.38;;;25.80;91.10;;;;;;5123825;28;20072;-53
2021/03/26 11:40:56;;;;;;;5.45;2.70;;;25.80;91.10;;;;;;5124920;28;20035;-50
2021/03/26 11:43:37;;;;;;;24.55;5.05;;;25.80;90.90;;;;;;5117041;28;20104;-53
2021/03/26 11:46:12;;;;;;;5.82;3.10;;;25.80;91.20;;;;;;5124931;28;20311;-51
2021/03/26 11:48:58;;;;;;;6.82;3.15;;;25.80;91.30;;;;;;5125099;28;20026;-47
2021/03/26 11:51:40;;;;;;;7.45;3.03;;;25.70;91.60;;;;;;5125318;28;20023;-54
2021/03/26 11:54:28;;;;;;;5.57;3.50;;;25.70;91.70;;;;;;5124867;28;20030;-54
2021/03/26 11:57:03;;;;;;;7.43;3.90;;;25.70;92.00;;;;;;5124828;28;20041;-52
2021/03/26 11:59:39;;;;;;;10.00;4.07;;;25.80;91.90;;;;;;5124652;28;20288;-48
2021/03/26 12:02:15;;;;;;;7.35;3.70;;;25.70;92.00;;;;;;5124911;28;20338;-50
2021/03/26 12:04:49;;;;;;;100.97;92.85;;;25.70;92.00;;;;;;5124829;28;20020;-48
2021/03/26 12:07:37;;;;;;;31.63;28.67;;;25.80;91.90;;;;;;5124677;28;20031;-50
2021/03/26 12:10:50;;;;;;;9.45;8.30;;;25.80;91.90;;;;;;5123808;28;20024;-50
2021/03/26 12:13:27;;;;;;;10.15;7.93;;;25.80;91.90;;;;;;5111190;28;20407;-52
2021/03/26 12:16:06;;;;;;;9.20;6.82;;;25.80;91.70;;;;;;5124937;28;20268;-52
2021/03/26 12:18:42;;;;;;;12.90;7.80;;;25.80;91.40;;;;;;5123501;28;20312;-53
2021/03/26 12:21:20;;;;;;;44.20;8.90;;;25.80;91.40;;;;;;5124697;28;20343;-51
2021/03/26 12:24:15;;;;;;;25.08;16.55;;;25.80;91.60;;;;;;5124358;28;20015;-53
2021/03/26 12:27:15;;;;;;;19.95;8.50;;;25.90;91.80;;;;;;5124933;28;20023;-46
2021/03/26 12:30:32;;;;;;;7.25;5.38;;;25.90;91.90;;;;;;5124280;28;20069;-52
2021/03/26 12:33:07;;;;;;;10.73;5.20;;;25.90;91.60;;;;;;5101265;28;20035;-51
2021/03/26 12:36:01;;;;;;;11.70;5.00;;;25.90;91.50;;;;;;5124272;28;20024;-51
2021/03/26 12:38:54;;;;;;;11.80;4.38;;;25.90;91.40;;;;;;5123796;28;20012;-51
2021/03/26 12:41:36;;;;;;;8.57;4.97;;;26.00;91.40;;;;;;5124540;28;20051;-48
2021/03/26 12:44:26;;;;;;;8.73;3.97;;;26.00;91.40;;;;;;5122661;28;20212;-51
2021/03/26 12:46:59;;;;;;;7.50;3.78;;;25.90;91.20;;;;;;5124183;28;20064;-56
2021/03/26 12:49:54;;;;;;;6.15;3.80;;;26.00;91.30;;;;;;5124110;28;20327;-54
2021/03/26 12:52:35;;;;;;;8.20;4.25;;;26.00;91.30;;;;;;5123957;28;20026;-49
2021/03/26 12:55:12;;;;;;;7.15;4.40;;;26.00;91.30;;;;;;5124303;28;20034;-51
2021/03/26 12:57:46;;;;;;;9.02;5.07;;;26.00;91.40;;;;;;5124320;28;20047;-53
2021/03/26 13:00:34;;;;;;;8.32;4.22;;;26.00;91.30;;;;;;5124309;28;20031;-50
2021/03/26 13:03:11;;;;;;;7.90;4.00;;;26.10;91.30;;;;;;5123875;28;20020;-56
2021/03/26 13:05:40;;;;;;;7.50;3.92;;;26.10;91.50;;;;;;5124505;28;20031;-53
2021/03/26 13:08:20;;;;;;;10.25;4.07;;;26.10;91.50;;;;;;5123937;28;20057;-48
2021/03/26 13:11:11;;;;;;;9.75;3.85;;;26.20;91.40;;;;;;5124350;28;20288;-50
2021/03/26 13:13:48;;;;;;;7.93;3.90;;;26.20;91.30;;;;;;5123811;28;20248;-52
2021/03/26 13:16:36;;;;;;;7.30;4.72;;;26.20;91.30;;;;;;5123944;28;20098;-55
2021/03/26 13:19:20;;;;;;;8.77;4.90;;;26.20;91.30;;;;;;5123898;28;20027;-53
2021/03/26 13:22:20;;;;;;;11.95;7.88;;;26.30;91.30;;;;;;5123634;28;20111;-56
2021/03/26 13:25:16;;;;;;;7.65;6.15;;;26.30;91.30;;;;;;5123831;28;20039;-53
2021/03/26 13:27:57;;;;;;;9.90;6.28;;;26.30;91.30;;;;;;5114877;28;20035;-52
2021/03/26 13:30:39;;;;;;;11.17;6.50;;;26.30;91.30;;;;;;5123901;28;20059;-51
2021/03/26 13:33:12;;;;;;;6.70;5.30;;;26.30;91.30;;;;;;5123827;28;20078;-46
2021/03/26 13:36:11;;;;;;;7.47;5.53;;;26.30;91.30;;;;;;5123620;28;20024;-51
2021/03/26 13:38:41;;;;;;;8.85;5.50;;;26.30;91.50;;;;;;5114646;28;20031;-47
2021/03/26 13:41:36;;;;;;;8.60;5.03;;;26.30;91.60;;;;;;5124049;28;20073;-51
2021/03/26 13:44:12;;;;;;;9.13;5.10;;;26.40;91.40;;;;;;5123437;28;20023;-51
2021/03/26 13:46:39;;;;;;;8.35;5.15;;;26.30;91.60;;;;;;5124544;28;20023;-50
2021/03/26 13:49:26;;;;;;;9.57;4.82;;;26.40;91.40;;;;;;5123486;28;20026;-52
2021/03/26 13:52:12;;;;;;;8.77;4.93;;;26.40;91.50;;;;;;5126053;28;20028;-50
2021/03/26 13:54:47;;;;;;;9.70;4.90;;;26.30;91.30;;;;;;5127116;28;20359;-48
2021/03/26 13:57:22;;;;;;;9.38;6.32;;;26.40;91.60;;;;;;5127228;28;20033;-48
2021/03/26 13:59:56;;;;;;;9.98;6.85;;;26.40;91.80;;;;;;5127132;28;20027;-53